createdAt,value
2022-08-01T00:01:26.515Z,44.29
2022-08-01T00:03:55.138Z,44.56
2022-08-01T00:06:23.571Z,44.84
2022-08-01T00:08:52.013Z,44.98
2022-08-01T00:11:21.921Z,45.07
2022-08-01T00:13:50.562Z,44.63
2022-08-01T00:16:19.054Z,45.13
2022-08-01T00:18:47.460Z,45.45
2022-08-01T00:21:16.076Z,45.61
2022-08-01T00:23:44.716Z,45.59
2022-08-01T00:26:13.276Z,45.66
2022-08-01T00:28:43.395Z,45.76
2022-08-01T00:31:11.846Z,45.68
2022-08-01T00:33:40.299Z,46.11
2022-08-01T00:36:09.065Z,46.28
2022-08-01T00:38:37.548Z,46.29
2022-08-01T00:41:06.015Z,46.25
2022-08-01T00:43:34.556Z,46.15
2022-08-01T00:46:04.437Z,46.07
2022-08-01T00:48:32.856Z,45.74
2022-08-01T00:51:01.378Z,45.96
2022-08-01T00:53:38.743Z,46.21
2022-08-01T00:56:18.593Z,45.95
2022-08-01T00:58:47.102Z,46.38
2022-08-01T01:01:21.873Z,46.54
2022-08-01T01:03:59.898Z,46.53
2022-08-01T01:06:38.040Z,46.78
2022-08-01T01:09:20.710Z,46.76
2022-08-01T01:11:59.912Z,46.56
2022-08-01T01:14:35.980Z,46.92
2022-08-01T01:17:10.128Z,47.43
2022-08-01T01:19:44.372Z,47.28
2022-08-01T01:22:28.242Z,47.57
2022-08-01T01:25:11.983Z,47.70
2022-08-01T01:27:51.914Z,47.53
2022-08-01T01:30:23.897Z,47.20
2022-08-01T01:32:56.352Z,47.15
2022-08-01T01:35:28.347Z,47.21
2022-08-01T01:38:00.999Z,47.28
2022-08-01T01:40:31.416Z,47.47
2022-08-01T01:43:00.704Z,47.37
2022-08-01T01:45:31.793Z,47.34
2022-08-01T01:48:01.505Z,47.11
2022-08-01T01:50:31.014Z,47.60
2022-08-01T01:53:01.625Z,47.85
2022-08-01T01:55:31.032Z,48.04
2022-08-01T01:58:01.572Z,48.20
2022-08-01T02:00:34.109Z,48.18
2022-08-01T02:03:06.879Z,48.22
2022-08-01T02:05:37.908Z,48.35
2022-08-01T02:08:07.975Z,49.01
2022-08-01T02:10:38.522Z,49.46
2022-08-01T02:13:08.908Z,49.47
2022-08-01T02:16:00.420Z,49.51
2022-08-01T02:18:28.233Z,49.73
2022-08-01T02:20:58.416Z,50.12
2022-08-01T02:23:32.789Z,50.23
2022-08-01T02:26:09.710Z,49.44
2022-08-01T02:28:45.814Z,49.33
2022-08-01T02:31:20.246Z,47.84
2022-08-01T02:33:54.329Z,47.73
2022-08-01T02:36:30.961Z,47.72
2022-08-01T02:39:04.572Z,47.67
2022-08-01T02:41:35.786Z,47.76
2022-08-01T02:44:07.475Z,47.64
2022-08-01T02:46:41.285Z,48.29
2022-08-01T02:49:13.370Z,48.18
2022-08-01T02:51:43.345Z,49.92
2022-08-01T02:54:13.123Z,49.73
2022-08-01T02:56:43.881Z,48.72
2022-08-01T02:59:16.370Z,48.32
2022-08-01T03:01:55.075Z,48.30
2022-08-01T03:04:25.082Z,48.45
2022-08-01T03:06:55.295Z,49.18
2022-08-01T03:09:25.349Z,50.13
2022-08-01T03:11:55.139Z,50.42
2022-08-01T03:14:26.092Z,50.12
2022-08-01T03:16:57.791Z,50.44
2022-08-01T03:19:29.776Z,49.36
2022-08-01T03:22:00.637Z,48.60
2022-08-01T03:24:30.741Z,49.06
2022-08-01T03:27:00.264Z,48.85
2022-08-01T03:29:31.532Z,48.09
2022-08-01T03:32:03.720Z,49.60
2022-08-01T03:34:32.618Z,48.65
2022-08-01T03:37:07.635Z,47.91
2022-08-01T03:39:42.313Z,47.82
2022-08-01T03:42:16.679Z,47.63
2022-08-01T03:44:52.091Z,47.33
2022-08-01T03:47:26.851Z,47.45
2022-08-01T03:49:57.299Z,46.98
2022-08-01T03:52:28.047Z,47.24
2022-08-01T03:54:58.605Z,47.13
2022-08-01T03:57:36.313Z,47.30
2022-08-01T04:00:10.107Z,48.64
2022-08-01T04:02:43.964Z,47.79
2022-08-01T04:05:13.103Z,47.76
2022-08-01T04:07:44.115Z,47.77
2022-08-01T04:10:13.351Z,47.67
2022-08-01T04:12:41.972Z,46.73
2022-08-01T04:15:10.883Z,47.03
2022-08-01T04:17:39.374Z,47.82
2022-08-01T04:20:10.410Z,47.29
2022-08-01T04:22:39.960Z,46.60
2022-08-01T04:25:14.835Z,47.06
2022-08-01T04:27:50.008Z,46.40
2022-08-01T04:30:22.510Z,46.34
2022-08-01T04:32:52.059Z,46.44
2022-08-01T04:36:02.814Z,46.90
2022-08-01T04:38:15.364Z,47.88
2022-08-01T04:40:44.914Z,47.47
2022-08-01T04:43:15.142Z,46.78
2022-08-01T04:45:45.803Z,46.37
2022-08-01T04:48:15.708Z,46.84
2022-08-01T04:50:45.638Z,46.26
2022-08-01T04:53:18.940Z,45.89
2022-08-01T04:55:48.184Z,45.95
2022-08-01T04:58:18.729Z,45.55
2022-08-01T05:00:48.273Z,45.36
2022-08-01T05:03:16.826Z,45.87
2022-08-01T05:05:47.365Z,45.79
2022-08-01T05:08:15.828Z,45.69
2022-08-01T05:10:44.794Z,45.43
2022-08-01T05:13:13.229Z,45.02
2022-08-01T05:15:42.205Z,44.86
2022-08-01T05:18:10.753Z,44.80
2022-08-01T05:20:39.383Z,45.04
2022-08-01T05:23:15.829Z,45.03
2022-08-01T05:25:59.051Z,43.61
2022-08-01T05:28:27.618Z,42.42
2022-08-01T05:30:57.672Z,42.20
2022-08-01T05:33:26.069Z,42.62
2022-08-01T05:35:54.569Z,41.82
2022-08-01T05:38:24.532Z,42.10
2022-08-01T05:40:53.123Z,42.37
2022-08-01T05:43:24.415Z,41.76
2022-08-01T05:45:56.783Z,42.06
2022-08-01T05:48:25.280Z,41.85
2022-08-01T05:50:58.209Z,41.78
2022-08-01T05:53:28.899Z,40.65
2022-08-01T05:55:57.625Z,40.94
2022-08-01T05:58:26.175Z,41.42
2022-08-01T06:00:54.623Z,41.10
2022-08-01T06:03:23.035Z,41.43
2022-08-01T06:05:51.623Z,40.51
2022-08-01T06:08:20.088Z,40.52
2022-08-01T06:10:49.932Z,40.14
2022-08-01T06:13:20.057Z,40.28
2022-08-01T06:15:48.970Z,40.70
2022-08-01T06:18:18.018Z,40.68
2022-08-01T06:20:46.479Z,40.27
2022-08-01T06:23:32.318Z,40.28
2022-08-01T06:26:03.150Z,40.00
2022-08-01T06:28:31.812Z,40.26
2022-08-01T06:31:00.942Z,40.72
2022-08-01T06:33:29.852Z,39.83
2022-08-01T06:35:58.316Z,40.27
2022-08-01T06:38:26.773Z,40.52
2022-08-01T06:40:55.280Z,40.54
2022-08-01T06:43:25.188Z,40.08
2022-08-01T06:45:53.703Z,39.91
2022-08-01T06:48:22.180Z,40.08
2022-08-01T06:51:08.945Z,39.74
2022-08-01T06:53:38.816Z,38.67
2022-08-01T06:56:09.768Z,38.51
2022-08-01T06:58:39.921Z,37.38
2022-08-01T07:01:08.640Z,38.39
2022-08-01T07:03:53.537Z,38.52
2022-08-01T07:06:23.030Z,38.31
2022-08-01T07:08:51.514Z,39.33
2022-08-01T07:11:20.530Z,38.25
2022-08-01T07:13:50.645Z,38.32
2022-08-01T07:16:19.593Z,37.94
2022-08-01T07:18:47.999Z,37.96
2022-08-01T07:21:38.862Z,37.83
2022-08-01T07:24:09.243Z,38.65
2022-08-01T07:26:52.462Z,37.98
2022-08-01T07:29:26.059Z,38.45
2022-08-01T07:31:55.384Z,38.63
2022-08-01T07:34:24.326Z,38.80
2022-08-01T07:36:53.519Z,38.17
2022-08-01T07:39:22.311Z,38.06
2022-08-01T07:42:06.425Z,37.35
2022-08-01T07:44:38.994Z,37.31
2022-08-01T07:47:08.811Z,37.01
2022-08-01T07:49:40.297Z,36.92
2022-08-01T07:52:10.101Z,37.50
2022-08-01T07:54:39.025Z,37.33
2022-08-01T07:57:08.263Z,37.50
2022-08-01T07:59:38.168Z,36.59
2022-08-01T08:02:07.422Z,36.46
2022-08-01T08:04:36.298Z,36.50
2022-08-01T08:07:05.196Z,38.94
2022-08-01T08:09:37.248Z,35.98
2022-08-01T08:12:08.460Z,35.34
2022-08-01T08:14:39.062Z,34.46
2022-08-01T08:17:08.136Z,34.61
2022-08-01T08:19:39.270Z,34.84
2022-08-01T08:22:09.812Z,34.68
2022-08-01T08:24:46.141Z,36.24
2022-08-01T08:27:15.628Z,35.39
2022-08-01T08:29:45.581Z,35.16
2022-08-01T08:32:14.497Z,35.96
2022-08-01T08:34:43.411Z,35.21
2022-08-01T08:37:12.242Z,35.81
2022-08-01T08:39:41.369Z,35.35
2022-08-01T08:42:11.806Z,36.49
2022-08-01T08:44:43.401Z,36.30
2022-08-01T08:47:19.883Z,34.95
2022-08-01T08:49:50.677Z,34.80
2022-08-01T08:52:21.884Z,35.39
2022-08-01T08:54:52.057Z,34.24
2022-08-01T08:57:22.586Z,33.82
2022-08-01T08:59:53.196Z,32.40
2022-08-01T09:02:23.337Z,33.30
2022-08-01T09:04:53.143Z,31.64
2022-08-01T09:07:21.719Z,32.42
2022-08-01T09:09:51.587Z,31.53
2022-08-01T09:12:21.520Z,30.56
2022-08-01T09:14:51.395Z,32.36
2022-08-01T09:17:20.106Z,30.99
2022-08-01T09:19:54.460Z,27.88
2022-08-01T09:22:25.925Z,29.50
2022-08-01T09:25:03.135Z,29.21
2022-08-01T09:27:32.511Z,29.84
2022-08-01T09:30:11.866Z,28.45
2022-08-01T09:32:55.730Z,28.12
2022-08-01T09:35:31.994Z,27.14
2022-08-01T09:38:16.741Z,27.85
2022-08-01T09:40:58.949Z,26.01
2022-08-01T09:43:29.091Z,26.29
2022-08-01T09:45:58.412Z,26.12
2022-08-01T09:48:29.907Z,25.21
2022-08-01T09:51:07.402Z,25.13
2022-08-01T09:53:52.178Z,25.44
2022-08-01T09:56:23.755Z,26.00
2022-08-01T09:58:59.419Z,25.92
2022-08-01T10:01:36.535Z,25.16
2022-08-01T10:04:10.784Z,25.53
2022-08-01T10:06:43.820Z,25.97
2022-08-01T10:09:14.818Z,25.77
2022-08-01T10:11:45.301Z,27.01
2022-08-01T10:14:18.119Z,25.68
2022-08-01T10:16:53.531Z,26.22
2022-08-01T10:19:25.138Z,27.66
2022-08-01T10:22:00.435Z,27.69
2022-08-01T10:24:33.429Z,26.14
2022-08-01T10:27:08.396Z,26.36
2022-08-01T10:29:59.170Z,27.03
2022-08-01T10:32:33.975Z,26.84
2022-08-01T10:35:06.233Z,26.54
2022-08-01T10:37:51.956Z,27.40
2022-08-01T10:40:30.798Z,26.31
2022-08-01T10:43:00.996Z,27.46
2022-08-01T10:45:30.575Z,28.60
2022-08-01T10:48:06.793Z,27.18
2022-08-01T10:50:40.594Z,27.27
2022-08-01T10:53:23.276Z,27.13
2022-08-01T10:56:03.205Z,28.63
2022-08-01T10:58:42.752Z,29.17
2022-08-01T11:01:19.665Z,27.63
2022-08-01T11:04:01.247Z,28.84
2022-08-01T11:06:41.899Z,29.24
2022-08-01T11:09:36.340Z,28.27
2022-08-01T11:12:13.124Z,27.53
2022-08-01T11:15:29.576Z,28.33
2022-08-01T11:18:02.563Z,28.21
2022-08-01T11:20:34.013Z,28.94
2022-08-01T11:23:36.338Z,29.33
2022-08-01T11:26:15.023Z,29.36
2022-08-01T11:29:10.822Z,29.55
2022-08-01T11:31:37.843Z,28.25
2022-08-01T11:34:07.401Z,29.18
2022-08-01T11:36:58.136Z,27.66
2022-08-01T11:39:24.543Z,28.77
2022-08-01T11:41:55.774Z,27.90
2022-08-01T11:44:30.125Z,27.87
2022-08-01T11:47:09.317Z,28.25
2022-08-01T11:50:00.735Z,27.39
2022-08-01T11:52:31.010Z,27.66
2022-08-01T11:55:10.059Z,29.14
2022-08-01T11:57:41.145Z,29.29
2022-08-01T12:00:15.403Z,29.60
2022-08-01T12:02:46.422Z,29.27
2022-08-01T12:05:17.746Z,28.80
2022-08-01T12:07:47.653Z,28.27
2022-08-01T12:10:17.877Z,29.00
2022-08-01T12:12:49.587Z,28.13
2022-08-01T12:15:19.272Z,28.21
2022-08-01T12:17:58.933Z,27.27
2022-08-01T12:20:32.023Z,28.06
2022-08-01T12:23:02.272Z,28.08
2022-08-01T12:25:31.315Z,28.11
2022-08-01T12:28:03.940Z,28.55
2022-08-01T12:30:36.588Z,28.23
2022-08-01T12:33:07.380Z,28.80
2022-08-01T12:35:37.621Z,28.80
2022-08-01T12:38:10.467Z,29.31
2022-08-01T12:40:45.619Z,28.08
2022-08-01T12:43:27.960Z,28.71
2022-08-01T12:46:00.556Z,28.37
2022-08-01T12:48:30.199Z,28.93
2022-08-01T12:51:02.299Z,28.28
2022-08-01T12:53:40.358Z,29.30
2022-08-01T12:56:12.183Z,28.73
2022-08-01T12:58:42.375Z,30.18
2022-08-01T13:01:13.193Z,28.83
2022-08-01T13:03:42.427Z,28.51
2022-08-01T13:06:16.586Z,29.31
2022-08-01T13:08:47.163Z,28.49
2022-08-01T13:11:18.201Z,28.72
2022-08-01T13:13:49.924Z,29.12
2022-08-01T13:16:30.531Z,29.09
2022-08-01T13:19:07.967Z,29.07
2022-08-01T13:21:54.394Z,28.51
2022-08-01T13:24:28.198Z,27.75
2022-08-01T13:27:00.660Z,28.69
2022-08-01T13:29:35.130Z,28.05
2022-08-01T13:32:29.174Z,27.52
2022-08-01T13:35:04.423Z,28.24
2022-08-01T13:37:33.111Z,29.28
2022-08-01T13:40:01.707Z,28.94
2022-08-01T13:42:33.005Z,28.66
2022-08-01T13:45:03.780Z,28.39
2022-08-01T13:47:32.930Z,28.47
2022-08-01T13:50:04.088Z,28.52
2022-08-01T13:52:33.225Z,29.72
2022-08-01T13:55:02.292Z,28.37
2022-08-01T13:57:37.281Z,28.34
2022-08-01T14:00:10.888Z,28.61
2022-08-01T14:02:42.341Z,28.76
2022-08-01T14:05:11.147Z,29.00
2022-08-01T14:07:39.629Z,29.20
2022-08-01T14:10:19.435Z,29.11
2022-08-01T14:12:49.738Z,29.31
2022-08-01T14:15:39.272Z,28.68
2022-08-01T14:18:10.543Z,29.20
2022-08-01T14:20:40.699Z,29.26
2022-08-01T14:23:09.502Z,29.13
2022-08-01T14:26:03.261Z,29.38
2022-08-01T14:28:29.286Z,29.62
2022-08-01T14:31:00.316Z,29.55
2022-08-01T14:33:28.964Z,29.79
2022-08-01T14:36:05.267Z,29.68
2022-08-01T14:38:46.869Z,30.11
2022-08-01T14:41:15.708Z,30.17
2022-08-01T14:43:44.198Z,30.11
2022-08-01T14:46:14.523Z,30.74
2022-08-01T14:48:43.373Z,29.97
2022-08-01T14:51:11.959Z,31.21
2022-08-01T14:53:47.132Z,30.20
2022-08-01T14:56:19.749Z,29.86
2022-08-01T14:58:48.613Z,29.86
2022-08-01T15:01:19.215Z,29.96
2022-08-01T15:03:49.117Z,29.89
2022-08-01T15:06:17.583Z,29.91
2022-08-01T15:08:46.376Z,29.67
2022-08-01T15:11:14.902Z,29.27
2022-08-01T15:13:43.461Z,29.73
2022-08-01T15:16:12.384Z,30.13
2022-08-01T15:18:43.103Z,29.62
2022-08-01T15:21:17.172Z,29.78
2022-08-01T15:23:45.698Z,29.86
2022-08-01T15:26:14.853Z,29.68
2022-08-01T15:28:43.428Z,29.96
2022-08-01T15:31:14.235Z,29.91
2022-08-01T15:33:44.315Z,30.04
2022-08-01T15:36:15.438Z,30.57
2022-08-01T15:38:44.003Z,30.24
2022-08-01T15:41:12.517Z,30.30
2022-08-01T15:43:44.128Z,30.67
2022-08-01T15:46:13.354Z,30.12
2022-08-01T15:48:43.624Z,30.28
2022-08-01T15:51:12.311Z,30.39
2022-08-01T15:53:41.525Z,30.96
2022-08-01T15:56:10.157Z,30.51
2022-08-01T15:58:38.615Z,30.82
2022-08-01T16:01:07.075Z,31.13
2022-08-01T16:03:35.580Z,30.79
2022-08-01T16:06:05.699Z,30.45
2022-08-01T16:08:34.263Z,30.79
2022-08-01T16:11:03.312Z,30.84
2022-08-01T16:13:31.776Z,30.56
2022-08-01T16:16:00.300Z,30.61
2022-08-01T16:18:28.788Z,30.45
2022-08-01T16:20:58.878Z,30.59
2022-08-01T16:23:29.066Z,30.73
2022-08-01T16:25:57.564Z,30.90
2022-08-01T16:28:27.738Z,30.92
2022-08-01T16:31:16.693Z,31.28
2022-08-01T16:33:54.158Z,31.37
2022-08-01T16:36:25.247Z,31.14
2022-08-01T16:38:55.116Z,31.07
2022-08-01T16:41:23.688Z,30.91
2022-08-01T16:43:53.507Z,31.21
2022-08-01T16:46:25.115Z,30.64
2022-08-01T16:48:54.263Z,30.95
2022-08-01T16:51:22.895Z,30.98
2022-08-01T16:53:51.443Z,31.21
2022-08-01T16:56:21.602Z,30.95
2022-08-01T16:58:50.160Z,31.10
2022-08-01T17:01:58.685Z,31.56
2022-08-01T17:04:08.141Z,31.59
2022-08-01T17:06:36.631Z,31.49
2022-08-01T17:09:06.018Z,31.53
2022-08-01T17:11:36.273Z,32.60
2022-08-01T17:14:05.772Z,32.14
2022-08-01T17:16:34.302Z,32.43
2022-08-01T17:19:03.880Z,32.21
2022-08-01T17:21:32.376Z,32.65
2022-08-01T17:24:01.044Z,32.87
2022-08-01T17:26:29.489Z,33.08
2022-08-01T17:28:59.665Z,32.99
2022-08-01T17:31:28.122Z,33.03
2022-08-01T17:33:56.601Z,33.50
2022-08-01T17:36:25.228Z,33.48
2022-08-01T17:38:53.663Z,33.43
2022-08-01T17:41:22.192Z,34.38
2022-08-01T17:43:50.706Z,34.23
2022-08-01T17:46:20.543Z,33.82
2022-08-01T17:48:48.992Z,34.31
2022-08-01T17:51:22.491Z,34.17
2022-08-01T17:53:56.945Z,34.49
2022-08-01T17:56:26.876Z,34.42
2022-08-01T17:58:55.747Z,34.64
2022-08-01T18:01:26.502Z,34.74
2022-08-01T18:03:57.691Z,35.06
2022-08-01T18:06:27.377Z,34.95
2022-08-01T18:08:59.580Z,35.27
2022-08-01T18:11:37.180Z,35.12
2022-08-01T18:14:07.046Z,35.49
2022-08-01T18:16:36.964Z,35.79
2022-08-01T18:19:07.050Z,35.76
2022-08-01T18:21:38.645Z,36.08
2022-08-01T18:24:11.035Z,36.05
2022-08-01T18:26:39.545Z,36.30
2022-08-01T18:29:08.121Z,36.42
2022-08-01T18:31:37.967Z,36.75
2022-08-01T18:34:06.646Z,36.60
2022-08-01T18:36:35.235Z,37.00
2022-08-01T18:39:10.907Z,36.67
2022-08-01T18:41:40.245Z,37.26
2022-08-01T18:44:09.596Z,37.25
2022-08-01T18:46:40.713Z,37.42
2022-08-01T18:49:11.800Z,37.70
2022-08-01T18:51:44.559Z,38.09
2022-08-01T18:54:13.982Z,38.26
2022-08-01T18:56:43.366Z,38.26
2022-08-01T18:59:12.301Z,38.52
2022-08-01T19:01:42.622Z,38.27
2022-08-01T19:04:13.353Z,38.31
2022-08-01T19:06:42.140Z,38.19
2022-08-01T19:09:10.807Z,38.10
2022-08-01T19:11:39.564Z,38.22
2022-08-01T19:14:08.287Z,38.42
2022-08-01T19:16:36.862Z,38.32
2022-08-01T19:19:09.745Z,38.55
2022-08-01T19:21:44.657Z,38.36
2022-08-01T19:24:23.377Z,38.68
2022-08-01T19:26:54.642Z,38.67
2022-08-01T19:29:35.260Z,38.79
2022-08-01T19:32:07.186Z,38.99
2022-08-01T19:34:44.202Z,39.91
2022-08-01T19:37:13.461Z,39.23
2022-08-01T19:39:45.841Z,39.87
2022-08-01T19:42:14.793Z,39.86
2022-08-01T19:44:45.548Z,39.71
2022-08-01T19:47:15.270Z,39.78
2022-08-01T19:49:45.425Z,39.85
2022-08-01T19:52:16.357Z,40.00
2022-08-01T19:54:46.309Z,40.04
2022-08-01T19:57:16.856Z,39.96
2022-08-01T19:59:47.682Z,40.52
2022-08-01T20:02:19.331Z,40.59
2022-08-01T20:04:49.936Z,40.52
2022-08-01T20:07:18.835Z,40.26
2022-08-01T20:09:54.275Z,40.17
2022-08-01T20:12:23.882Z,40.37
2022-08-01T20:14:53.887Z,40.27
2022-08-01T20:17:23.112Z,40.26
2022-08-01T20:19:53.404Z,40.01
2022-08-01T20:22:29.439Z,40.41
2022-08-01T20:25:00.411Z,40.31
2022-08-01T20:27:32.041Z,40.32
2022-08-01T20:30:01.699Z,40.64
2022-08-01T20:32:34.211Z,40.46
2022-08-01T20:35:06.590Z,41.32
2022-08-01T20:38:05.871Z,40.78
2022-08-01T20:40:28.559Z,40.67
2022-08-01T20:42:58.108Z,41.01
2022-08-01T20:45:27.992Z,41.45
2022-08-01T20:47:59.539Z,40.97
2022-08-01T20:50:54.090Z,41.26
2022-08-01T20:53:24.022Z,40.83
2022-08-01T20:56:00.858Z,41.40
2022-08-01T20:58:38.354Z,40.80
2022-08-01T21:01:09.611Z,41.06
2022-08-01T21:03:43.556Z,41.15
2022-08-01T21:06:15.317Z,41.19
2022-08-01T21:08:45.829Z,41.22
2022-08-01T21:11:20.931Z,41.38
2022-08-01T21:13:50.515Z,41.33
2022-08-01T21:16:27.607Z,41.96
2022-08-01T21:21:56.031Z,41.40
2022-08-01T21:24:28.983Z,41.62
2022-08-01T21:26:58.881Z,41.86
2022-08-01T21:29:27.876Z,42.25
2022-08-01T21:32:10.423Z,41.92
2022-08-01T21:34:40.507Z,41.93
2022-08-01T21:37:11.209Z,41.75
2022-08-01T21:39:41.520Z,41.96
2022-08-01T21:42:11.292Z,42.14
2022-08-01T21:44:46.068Z,41.83
2022-08-01T21:47:16.842Z,42.25
2022-08-01T21:49:45.384Z,42.24
2022-08-01T21:52:21.534Z,42.41
2022-08-01T21:55:01.971Z,42.05
2022-08-01T21:57:43.821Z,42.22
2022-08-01T22:00:25.711Z,41.96
2022-08-01T22:03:02.146Z,42.19
2022-08-01T22:05:49.916Z,42.17
2022-08-01T22:08:28.929Z,42.44
2022-08-01T22:11:00.665Z,42.47
2022-08-01T22:13:29.361Z,42.47
2022-08-01T22:15:58.995Z,42.33
2022-08-01T22:18:28.880Z,42.34
2022-08-01T22:20:57.735Z,42.44
2022-08-01T22:23:28.039Z,42.65
2022-08-01T22:25:57.368Z,42.78
2022-08-01T22:28:25.840Z,43.18
2022-08-01T22:30:54.688Z,43.30
2022-08-01T22:33:23.105Z,43.47
2022-08-01T22:35:53.764Z,43.49
2022-08-01T22:38:23.838Z,43.70
2022-08-01T22:40:55.465Z,42.92
2022-08-01T22:43:31.395Z,43.04
2022-08-01T22:46:17.200Z,43.19
2022-08-01T22:48:50.924Z,43.75
2022-08-01T22:51:43.206Z,44.00
2022-08-01T22:54:15.062Z,43.26
2022-08-01T22:56:55.923Z,43.09
2022-08-01T22:59:42.669Z,43.55
2022-08-01T23:02:17.411Z,43.75
2022-08-01T23:04:48.164Z,43.93
2022-08-01T23:07:21.168Z,44.04
2022-08-01T23:09:53.822Z,43.57
2022-08-01T23:12:29.000Z,43.10
2022-08-01T23:15:00.190Z,43.31
2022-08-01T23:17:31.309Z,43.58
2022-08-01T23:20:01.626Z,43.38
2022-08-01T23:22:34.029Z,44.14
2022-08-01T23:25:07.057Z,43.79
2022-08-01T23:27:55.877Z,43.90
2022-08-01T23:30:31.220Z,43.80
2022-08-01T23:33:00.774Z,44.32
2022-08-01T23:35:30.165Z,44.30
2022-08-01T23:38:02.702Z,44.12
2022-08-01T23:40:32.988Z,44.43
2022-08-01T23:43:04.278Z,44.79
2022-08-01T23:46:02.901Z,44.61
2022-08-01T23:48:22.129Z,44.23
2022-08-01T23:50:52.434Z,44.44
2022-08-01T23:53:20.873Z,44.69
2022-08-01T23:55:49.288Z,44.94
2022-08-01T23:58:19.784Z,45.32
